createdAt,value
2023-10-28T00:02:17.562Z,1.74
2023-10-28T00:04:45.218Z,1.67
2023-10-28T00:07:13.038Z,2.05
2023-10-28T00:09:41.720Z,1.82
2023-10-28T00:12:14.068Z,1.74
2023-10-28T00:14:42.347Z,1.68
2023-10-28T00:17:10.539Z,1.53
2023-10-28T00:19:38.786Z,1.54
2023-10-28T00:22:06.478Z,1.74
2023-10-28T00:24:34.246Z,1.78
2023-10-28T00:27:01.862Z,2.02
2023-10-28T00:29:29.793Z,1.70
2023-10-28T00:31:57.602Z,1.72
2023-10-28T00:34:25.399Z,1.82
2023-10-28T00:36:53.557Z,1.93
2023-10-28T00:39:21.315Z,1.70
2023-10-28T00:41:49.126Z,1.62
2023-10-28T00:44:17.299Z,1.79
2023-10-28T00:46:45.921Z,1.58
2023-10-28T00:49:14.431Z,1.74
2023-10-28T00:51:44.356Z,1.86
2023-10-28T00:54:12.853Z,1.87
2023-10-28T00:56:40.727Z,1.84
2023-10-28T00:59:09.479Z,1.54
2023-10-28T01:01:37.336Z,2.02
2023-10-28T01:04:06.553Z,1.63
2023-10-28T01:06:34.777Z,1.41
2023-10-28T01:09:02.561Z,1.51
2023-10-28T01:11:30.172Z,1.67
2023-10-28T01:13:57.926Z,1.62
2023-10-28T01:16:27.244Z,1.73
2023-10-28T01:18:59.119Z,1.56
2023-10-28T01:21:27.068Z,1.71
2023-10-28T01:23:57.770Z,1.38
2023-10-28T01:26:26.690Z,1.61
2023-10-28T01:28:55.553Z,1.39
2023-10-28T01:31:23.452Z,1.58
2023-10-28T01:33:51.307Z,1.46
2023-10-28T01:36:19.080Z,1.55
2023-10-28T01:38:46.802Z,1.58
2023-10-28T01:41:14.578Z,1.88
2023-10-28T01:43:45.858Z,1.62
2023-10-28T01:46:14.023Z,1.66
2023-10-28T01:48:42.800Z,1.75
2023-10-28T01:51:11.936Z,1.58
2023-10-28T01:53:39.592Z,1.56
2023-10-28T01:56:07.798Z,1.60
2023-10-28T01:58:35.621Z,1.48
2023-10-28T02:01:03.425Z,1.58
2023-10-28T02:03:32.405Z,1.42
2023-10-28T02:06:00.318Z,1.38
2023-10-28T02:08:28.139Z,1.44
2023-10-28T02:10:56.600Z,1.49
2023-10-28T02:13:24.513Z,1.38
2023-10-28T02:15:52.787Z,1.53
2023-10-28T02:18:21.020Z,1.26
2023-10-28T02:20:48.661Z,1.35
2023-10-28T02:23:16.412Z,1.24
2023-10-28T02:25:44.365Z,1.39
2023-10-28T02:28:12.265Z,1.21
2023-10-28T02:30:41.551Z,1.21
2023-10-28T02:33:09.910Z,1.21
2023-10-28T02:35:38.400Z,1.16
2023-10-28T02:38:06.163Z,1.03
2023-10-28T02:40:34.711Z,1.14
2023-10-28T02:43:02.414Z,1.00
2023-10-28T02:45:30.148Z,1.00
2023-10-28T02:47:57.817Z,1.24
2023-10-28T02:50:25.595Z,1.07
2023-10-28T02:52:54.585Z,1.23
2023-10-28T02:55:22.892Z,1.15
2023-10-28T02:57:53.815Z,1.15
2023-10-28T03:00:23.647Z,1.19
2023-10-28T03:02:54.012Z,1.20
2023-10-28T03:05:25.225Z,1.17
2023-10-28T03:07:53.151Z,1.48
2023-10-28T03:10:22.119Z,1.52
2023-10-28T03:12:50.523Z,1.33
2023-10-28T03:15:19.236Z,1.39
2023-10-28T03:17:46.927Z,1.50
2023-10-28T03:20:20.358Z,1.58
2023-10-28T03:22:48.784Z,1.60
2023-10-28T03:25:16.608Z,1.71
2023-10-28T03:27:44.324Z,1.66
2023-10-28T03:30:12.476Z,1.72
2023-10-28T03:32:40.403Z,1.96
2023-10-28T03:35:09.569Z,1.81
2023-10-28T03:37:38.913Z,1.84
2023-10-28T03:40:07.524Z,1.54
2023-10-28T03:42:35.341Z,1.66
2023-10-28T03:45:03.858Z,1.60
2023-10-28T03:47:31.559Z,1.71
2023-10-28T03:49:59.396Z,1.82
2023-10-28T03:52:27.633Z,1.67
2023-10-28T03:54:55.392Z,1.86
2023-10-28T03:57:23.168Z,1.80
2023-10-28T03:59:51.146Z,1.87
2023-10-28T04:02:21.890Z,1.88
2023-10-28T04:04:49.588Z,1.75
2023-10-28T04:07:17.387Z,2.16
2023-10-28T04:09:45.295Z,1.62
2023-10-28T04:12:13.251Z,1.57
2023-10-28T04:14:41.269Z,1.87
2023-10-28T04:17:09.259Z,1.61
2023-10-28T04:19:37.056Z,1.62
2023-10-28T04:22:05.036Z,1.62
2023-10-28T04:24:33.287Z,1.72
2023-10-28T04:27:01.003Z,1.58
2023-10-28T04:29:30.794Z,1.62
2023-10-28T04:31:59.050Z,1.45
2023-10-28T04:34:29.130Z,1.30
2023-10-28T04:37:05.320Z,1.46
2023-10-28T04:39:33.138Z,1.80
2023-10-28T04:42:01.263Z,1.77
2023-10-28T04:44:30.046Z,1.74
2023-10-28T04:46:58.842Z,1.76
2023-10-28T04:49:27.104Z,1.46
2023-10-28T04:51:55.665Z,1.40
2023-10-28T04:54:24.213Z,1.37
2023-10-28T04:56:52.067Z,1.32
2023-10-28T04:59:19.867Z,1.28
2023-10-28T05:01:47.697Z,1.21
2023-10-28T05:04:15.383Z,1.17
2023-10-28T05:06:43.149Z,1.08
2023-10-28T05:09:10.917Z,0.90
2023-10-28T05:11:38.728Z,0.94
2023-10-28T05:14:06.413Z,0.89
2023-10-28T05:16:34.279Z,0.89
2023-10-28T05:19:02.221Z,0.89
2023-10-28T05:21:30.014Z,0.86
2023-10-28T05:23:58.010Z,0.83
2023-10-28T05:26:25.886Z,0.84
2023-10-28T05:28:55.424Z,0.82
2023-10-28T05:31:23.639Z,0.78
2023-10-28T05:33:52.154Z,0.72
2023-10-28T05:36:19.891Z,0.84
2023-10-28T05:38:47.706Z,0.84
2023-10-28T05:41:15.460Z,0.81
2023-10-28T05:43:43.325Z,0.78
2023-10-28T05:46:12.330Z,1.18
2023-10-28T05:48:40.540Z,0.66
2023-10-28T05:51:10.539Z,0.81
2023-10-28T05:53:39.252Z,0.57
2023-10-28T05:56:07.404Z,0.76
2023-10-28T05:58:35.338Z,0.74
2023-10-28T06:01:03.545Z,0.61
2023-10-28T06:03:31.321Z,0.75
2023-10-28T06:05:59.067Z,0.80
2023-10-28T06:08:27.192Z,0.81
2023-10-28T06:10:55.506Z,0.70
2023-10-28T06:13:23.304Z,0.63
2023-10-28T06:15:51.080Z,0.84
2023-10-28T06:18:20.758Z,0.92
2023-10-28T06:20:48.691Z,0.85
2023-10-28T06:23:16.677Z,0.94
2023-10-28T06:25:44.682Z,0.91
2023-10-28T06:28:12.551Z,0.93
2023-10-28T06:30:50.814Z,0.97
2023-10-28T06:33:19.261Z,0.91
2023-10-28T06:35:47.891Z,1.08
2023-10-28T06:38:15.599Z,1.14
2023-10-28T06:40:43.460Z,1.21
2023-10-28T06:43:12.309Z,1.13
2023-10-28T06:45:40.851Z,1.11
2023-10-28T06:48:09.392Z,1.18
2023-10-28T06:50:37.271Z,2.15
2023-10-28T06:53:05.063Z,1.96
2023-10-28T06:55:33.200Z,1.92
2023-10-28T06:58:00.903Z,1.86
2023-10-28T07:00:29.295Z,1.91
2023-10-28T07:02:58.046Z,1.72
2023-10-28T07:05:26.002Z,1.55
2023-10-28T07:07:55.620Z,1.95
2023-10-28T07:10:23.919Z,1.99
2023-10-28T07:12:51.623Z,1.60
2023-10-28T07:15:19.955Z,1.97
2023-10-28T07:17:47.719Z,2.03
2023-10-28T07:22:48.570Z,1.75
2023-10-28T07:25:16.367Z,1.89
2023-10-28T07:27:44.091Z,1.62
2023-10-28T07:30:13.913Z,1.77
2023-10-28T07:32:41.965Z,1.62
2023-10-28T07:35:10.210Z,1.73
2023-10-28T07:37:38.023Z,1.83
2023-10-28T07:40:06.262Z,1.76
2023-10-28T07:42:36.006Z,1.79
2023-10-28T07:45:05.397Z,1.54
2023-10-28T07:47:33.311Z,1.66
2023-10-28T07:50:01.090Z,1.79
2023-10-28T07:52:29.350Z,1.58
2023-10-28T07:54:57.085Z,1.79
2023-10-28T07:57:25.305Z,1.78
2023-10-28T07:59:54.521Z,1.79
2023-10-28T08:02:22.400Z,1.76
2023-10-28T08:04:55.809Z,1.63
2023-10-28T08:07:23.620Z,1.87
2023-10-28T08:09:51.860Z,1.71
2023-10-28T08:12:20.082Z,1.72
2023-10-28T08:14:50.694Z,1.83
2023-10-28T08:17:18.482Z,1.64
2023-10-28T08:19:46.589Z,1.59
2023-10-28T08:22:15.278Z,1.59
2023-10-28T08:24:43.365Z,1.67
2023-10-28T08:27:11.254Z,1.58
2023-10-28T08:29:40.218Z,1.57
2023-10-28T08:32:08.370Z,1.66
2023-10-28T08:34:36.220Z,1.70
2023-10-28T08:37:04.342Z,1.82
2023-10-28T08:39:32.835Z,1.86
2023-10-28T08:42:06.175Z,1.61
2023-10-28T08:44:34.235Z,1.89
2023-10-28T08:47:07.938Z,1.67
2023-10-28T08:49:41.078Z,1.70
2023-10-28T08:52:15.009Z,1.70
2023-10-28T08:54:46.290Z,1.79
2023-10-28T08:57:14.998Z,2.04
2023-10-28T08:59:43.078Z,2.22
2023-10-28T09:02:13.460Z,1.85
2023-10-28T09:04:41.301Z,1.96
2023-10-28T09:07:09.059Z,2.19
2023-10-28T09:09:39.024Z,2.55
2023-10-28T09:12:09.966Z,2.58
2023-10-28T09:14:39.074Z,2.27
2023-10-28T09:17:08.143Z,2.56
2023-10-28T09:19:35.808Z,3.38
2023-10-28T09:22:04.084Z,3.01
2023-10-28T09:24:33.317Z,2.88
2023-10-28T09:27:02.144Z,2.45
2023-10-28T09:29:31.839Z,2.02
2023-10-28T09:32:10.647Z,2.07
2023-10-28T09:34:42.755Z,2.24
2023-10-28T09:37:11.758Z,3.03
2023-10-28T09:39:40.577Z,3.23
2023-10-28T09:42:08.522Z,2.89
2023-10-28T09:44:36.707Z,2.86
2023-10-28T09:47:07.086Z,3.65
2023-10-28T09:49:38.387Z,3.66
2023-10-28T09:52:12.235Z,3.64
2023-10-28T09:54:44.409Z,3.76
2023-10-28T09:57:12.424Z,3.44
2023-10-28T09:59:45.395Z,3.62
2023-10-28T10:02:25.502Z,3.81
2023-10-28T10:05:02.082Z,4.08
2023-10-28T10:07:30.267Z,3.86
2023-10-28T10:10:17.533Z,3.98
2023-10-28T10:12:46.859Z,4.16
2023-10-28T10:15:15.235Z,4.62
2023-10-28T10:18:14.071Z,5.02
2023-10-28T10:20:45.719Z,5.14
2023-10-28T10:23:14.293Z,5.11
2023-10-28T10:25:47.893Z,4.67
2023-10-28T10:28:24.706Z,5.35
2023-10-28T10:30:52.641Z,5.44
2023-10-28T10:33:27.642Z,5.35
2023-10-28T10:35:56.364Z,5.72
2023-10-28T10:38:31.427Z,4.80
2023-10-28T10:41:00.107Z,4.43
2023-10-28T10:43:34.636Z,4.85
2023-10-28T10:46:04.813Z,5.41
2023-10-28T10:48:34.570Z,4.87
2023-10-28T10:51:03.682Z,4.09
2023-10-28T10:53:40.941Z,4.57
2023-10-28T10:56:19.023Z,4.51
2023-10-28T10:58:47.091Z,4.48
2023-10-28T11:01:16.488Z,5.32
2023-10-28T11:03:45.921Z,4.74
2023-10-28T11:06:14.116Z,5.22
2023-10-28T11:08:42.285Z,5.44
2023-10-28T11:11:10.094Z,5.34
2023-10-28T11:13:38.018Z,5.65
2023-10-28T11:16:06.642Z,5.05
2023-10-28T11:18:37.043Z,5.54
2023-10-28T11:21:05.329Z,5.19
2023-10-28T11:23:33.678Z,5.30
2023-10-28T11:26:05.255Z,5.16
2023-10-28T11:28:34.648Z,4.61
2023-10-28T11:31:02.772Z,4.34
2023-10-28T11:33:31.135Z,4.68
2023-10-28T11:35:59.236Z,5.05
2023-10-28T11:38:27.193Z,4.70
2023-10-28T11:41:14.678Z,4.56
2023-10-28T11:43:42.427Z,4.79
2023-10-28T11:46:10.318Z,4.48
2023-10-28T11:48:38.123Z,4.35
2023-10-28T11:51:06.253Z,4.70
2023-10-28T11:53:35.025Z,5.19
2023-10-28T11:56:03.191Z,5.47
2023-10-28T11:58:31.954Z,6.48
2023-10-28T12:00:59.851Z,6.67
2023-10-28T12:03:28.192Z,4.19
2023-10-28T12:05:57.012Z,3.06
2023-10-28T12:08:25.026Z,3.00
2023-10-28T12:10:52.961Z,3.42
2023-10-28T12:13:20.678Z,3.64
2023-10-28T12:15:48.427Z,3.82
2023-10-28T12:18:17.574Z,3.63
2023-10-28T12:20:45.907Z,3.03
2023-10-28T12:23:14.502Z,3.45
2023-10-28T12:25:42.926Z,3.58
2023-10-28T12:28:10.824Z,3.03
2023-10-28T12:30:38.566Z,3.09
2023-10-28T12:33:07.011Z,3.26
2023-10-28T12:35:35.280Z,3.17
2023-10-28T12:38:03.255Z,3.15
2023-10-28T12:40:31.914Z,3.19
2023-10-28T12:42:59.663Z,2.72
2023-10-28T12:45:27.734Z,2.35
2023-10-28T12:47:55.701Z,2.81
2023-10-28T12:50:23.694Z,2.74
2023-10-28T12:52:51.597Z,2.38
2023-10-28T12:55:19.547Z,2.62
2023-10-28T12:57:47.298Z,2.42
2023-10-28T13:00:15.987Z,2.59
2023-10-28T13:02:45.833Z,2.76
2023-10-28T13:05:13.843Z,2.46
2023-10-28T13:07:41.720Z,2.82
2023-10-28T13:10:12.143Z,2.70
2023-10-28T13:12:40.754Z,2.52
2023-10-28T13:15:08.953Z,2.18
2023-10-28T13:17:36.845Z,2.43
2023-10-28T13:20:05.891Z,2.25
2023-10-28T13:22:33.688Z,2.32
2023-10-28T13:25:01.695Z,2.25
2023-10-28T13:27:30.434Z,1.92
2023-10-28T13:29:58.144Z,1.97
2023-10-28T13:32:26.822Z,2.33
2023-10-28T13:34:58.402Z,1.94
2023-10-28T13:37:26.415Z,1.84
2023-10-28T13:39:55.441Z,1.92
2023-10-28T13:42:23.160Z,2.19
2023-10-28T13:44:51.185Z,2.03
2023-10-28T13:47:21.667Z,2.23
2023-10-28T13:49:50.086Z,2.09
2023-10-28T13:52:18.279Z,2.02
2023-10-28T13:54:46.030Z,2.26
2023-10-28T13:57:13.833Z,1.87
2023-10-28T13:59:44.327Z,1.93
2023-10-28T14:02:12.180Z,2.38
2023-10-28T14:04:43.811Z,2.10
2023-10-28T14:07:11.785Z,1.94
2023-10-28T14:09:39.466Z,1.91
2023-10-28T14:12:08.176Z,2.36
2023-10-28T14:14:36.129Z,2.03
2023-10-28T14:17:05.481Z,2.09
2023-10-28T14:19:34.257Z,2.03
2023-10-28T14:22:02.328Z,2.05
2023-10-28T14:24:30.860Z,2.61
2023-10-28T14:26:59.536Z,1.92
2023-10-28T14:29:27.652Z,1.92
2023-10-28T14:31:55.633Z,2.06
2023-10-28T14:34:23.730Z,2.05
2023-10-28T14:36:51.552Z,2.43
2023-10-28T14:39:19.605Z,1.93
2023-10-28T14:41:47.320Z,2.08
2023-10-28T14:44:16.008Z,2.00
2023-10-28T14:46:43.854Z,2.06
2023-10-28T14:49:12.786Z,2.14
2023-10-28T14:51:40.961Z,2.03
2023-10-28T14:54:09.036Z,1.83
2023-10-28T14:56:36.907Z,1.97
2023-10-28T14:59:04.908Z,1.87
2023-10-28T15:01:32.694Z,1.70
2023-10-28T15:04:00.601Z,1.91
2023-10-28T15:06:28.782Z,1.91
2023-10-28T15:08:57.108Z,1.79
2023-10-28T15:11:25.427Z,1.84
2023-10-28T15:13:53.662Z,1.87
2023-10-28T15:16:22.095Z,1.86
2023-10-28T15:18:50.489Z,1.70
2023-10-28T15:21:18.806Z,1.78
2023-10-28T15:23:49.939Z,1.90
2023-10-28T15:26:20.608Z,1.89
2023-10-28T15:28:48.937Z,2.24
2023-10-28T15:31:17.971Z,2.70
2023-10-28T15:33:46.739Z,2.45
2023-10-28T15:36:16.156Z,2.27
2023-10-28T15:38:44.399Z,1.92
2023-10-28T15:41:13.347Z,2.03
2023-10-28T15:43:41.350Z,1.84
2023-10-28T15:46:14.179Z,2.08
2023-10-28T15:48:45.424Z,1.99
2023-10-28T15:51:19.928Z,2.10
2023-10-28T15:53:47.907Z,2.10
2023-10-28T15:56:16.838Z,1.83
2023-10-28T15:58:46.380Z,1.91
2023-10-28T16:01:14.794Z,2.02
2023-10-28T16:03:42.834Z,3.06
2023-10-28T16:06:11.770Z,3.56
2023-10-28T16:08:41.317Z,2.40
2023-10-28T16:11:12.093Z,1.79
2023-10-28T16:13:42.423Z,1.99
2023-10-28T16:16:13.068Z,1.64
2023-10-28T16:18:42.054Z,1.93
2023-10-28T16:21:10.478Z,2.66
2023-10-28T16:23:38.571Z,4.84
2023-10-28T16:26:06.516Z,6.31
2023-10-28T16:28:34.644Z,4.19
2023-10-28T16:31:08.154Z,2.07
2023-10-28T16:33:37.331Z,1.59
2023-10-28T16:36:05.497Z,1.55
2023-10-28T16:38:33.577Z,1.36
2023-10-28T16:41:01.413Z,1.56
2023-10-28T16:43:29.192Z,1.53
2023-10-28T16:46:04.216Z,1.39
2023-10-28T16:48:32.151Z,1.46
2023-10-28T16:51:00.311Z,1.77
2023-10-28T16:53:28.532Z,1.33
2023-10-28T16:56:09.897Z,1.37
2023-10-28T16:58:38.229Z,1.24
2023-10-28T17:01:09.447Z,1.16
2023-10-28T17:03:37.828Z,1.25
2023-10-28T17:06:06.828Z,1.10
2023-10-28T17:08:34.663Z,1.35
2023-10-28T17:11:05.359Z,1.34
2023-10-28T17:13:33.617Z,1.23
2023-10-28T17:16:01.571Z,1.13
2023-10-28T17:18:29.379Z,1.28
2023-10-28T17:20:57.200Z,1.59
2023-10-28T17:23:25.157Z,1.82
2023-10-28T17:25:53.043Z,2.18
2023-10-28T17:28:21.742Z,1.87
2023-10-28T17:30:49.453Z,1.48
2023-10-28T17:33:17.156Z,1.48
2023-10-28T17:35:46.732Z,1.56
2023-10-28T17:38:14.473Z,1.86
2023-10-28T17:40:42.165Z,1.51
2023-10-28T17:43:10.120Z,1.62
2023-10-28T17:45:41.519Z,1.72
2023-10-28T17:48:09.355Z,1.69
2023-10-28T17:50:37.619Z,1.67
2023-10-28T17:53:05.513Z,1.56
2023-10-28T17:55:33.352Z,1.52
2023-10-28T17:58:01.283Z,1.53
2023-10-28T18:00:29.007Z,1.55
2023-10-28T18:02:56.989Z,1.54
2023-10-28T18:05:25.002Z,1.49
2023-10-28T18:07:52.988Z,1.44
2023-10-28T18:10:21.968Z,1.50
2023-10-28T18:12:53.015Z,1.73
2023-10-28T18:15:20.772Z,1.44
2023-10-28T18:17:48.451Z,1.21
2023-10-28T18:20:16.437Z,1.21
2023-10-28T18:22:44.367Z,1.26
2023-10-28T18:25:12.136Z,1.44
2023-10-28T18:27:39.942Z,1.25
2023-10-28T18:30:08.469Z,1.23
2023-10-28T18:32:40.435Z,1.31
2023-10-28T18:35:08.976Z,1.41
2023-10-28T18:37:37.191Z,1.46
2023-10-28T18:40:05.908Z,1.58
2023-10-28T18:42:36.525Z,1.76
2023-10-28T18:45:05.530Z,1.82
2023-10-28T18:47:38.394Z,2.05
2023-10-28T18:50:09.523Z,2.12
2023-10-28T18:52:37.502Z,2.23
2023-10-28T18:55:06.123Z,2.35
2023-10-28T18:57:34.031Z,2.32
2023-10-28T19:00:02.510Z,1.77
2023-10-28T19:02:30.323Z,2.08
2023-10-28T19:04:58.428Z,3.85
2023-10-28T19:07:26.249Z,3.44
2023-10-28T19:09:55.304Z,2.32
2023-10-28T19:12:23.185Z,1.76
2023-10-28T19:14:51.110Z,2.04
2023-10-28T19:17:18.761Z,3.01
2023-10-28T19:19:49.443Z,3.31
2023-10-28T19:22:18.978Z,3.73
2023-10-28T19:24:47.164Z,3.15
2023-10-28T19:27:14.932Z,2.04
2023-10-28T19:29:42.817Z,1.45
2023-10-28T19:32:11.273Z,1.53
2023-10-28T19:34:39.069Z,1.21
2023-10-28T19:37:06.725Z,1.74
2023-10-28T19:39:34.530Z,3.57
2023-10-28T19:42:04.530Z,2.93
2023-10-28T19:44:32.514Z,1.56
2023-10-28T19:47:00.798Z,1.43
2023-10-28T19:49:28.887Z,1.69
2023-10-28T19:51:58.666Z,1.37
2023-10-28T19:54:26.409Z,2.10
2023-10-28T19:56:54.170Z,2.04
2023-10-28T19:59:21.891Z,1.23
2023-10-28T20:01:50.505Z,1.05
2023-10-28T20:04:18.284Z,1.07
2023-10-28T20:06:46.105Z,1.16
2023-10-28T20:09:17.175Z,1.07
2023-10-28T20:11:45.065Z,1.10
2023-10-28T20:14:12.951Z,1.14
2023-10-28T20:16:40.947Z,1.11
2023-10-28T20:19:10.168Z,0.93
2023-10-28T20:21:39.066Z,0.97
2023-10-28T20:24:07.187Z,0.98
2023-10-28T20:26:35.267Z,0.84
2023-10-28T20:29:03.510Z,0.73
2023-10-28T20:31:31.337Z,0.92
2023-10-28T20:33:59.427Z,0.91
2023-10-28T20:36:27.887Z,0.97
2023-10-28T20:38:56.382Z,0.96
2023-10-28T20:41:27.176Z,0.90
2023-10-28T20:43:55.652Z,0.90
2023-10-28T20:46:24.393Z,0.93
2023-10-28T20:48:52.205Z,0.86
2023-10-28T20:51:21.902Z,0.91
2023-10-28T20:53:49.787Z,0.85
2023-10-28T20:56:17.721Z,0.74
2023-10-28T20:58:46.383Z,0.77
2023-10-28T21:01:15.227Z,0.78
2023-10-28T21:03:43.324Z,0.84
2023-10-28T21:06:11.527Z,0.79
2023-10-28T21:08:39.991Z,0.85
2023-10-28T21:11:14.523Z,0.76
2023-10-28T21:13:42.415Z,0.79
2023-10-28T21:16:10.547Z,0.87
2023-10-28T21:18:38.710Z,0.73
2023-10-28T21:21:06.925Z,0.75
2023-10-28T21:23:35.085Z,0.92
2023-10-28T21:26:04.508Z,0.98
2023-10-28T21:28:32.677Z,0.91
2023-10-28T21:31:04.494Z,0.84
2023-10-28T21:33:32.729Z,0.83
2023-10-28T21:36:00.947Z,0.91
2023-10-28T21:38:29.010Z,0.94
2023-10-28T21:40:59.521Z,0.74
2023-10-28T21:43:28.630Z,0.77
2023-10-28T21:46:04.209Z,0.67
2023-10-28T21:48:32.697Z,0.74
2023-10-28T21:51:00.465Z,0.85
2023-10-28T21:53:28.734Z,0.76
2023-10-28T21:56:05.862Z,0.75
2023-10-28T21:58:37.893Z,0.68
2023-10-28T22:01:05.896Z,0.97
2023-10-28T22:03:33.947Z,0.89
2023-10-28T22:06:02.087Z,0.71
2023-10-28T22:08:30.499Z,0.80
2023-10-28T22:10:58.255Z,0.92
2023-10-28T22:13:26.170Z,0.77
2023-10-28T22:15:54.093Z,0.73
2023-10-28T22:18:21.911Z,0.79
2023-10-28T22:20:51.278Z,0.89
2023-10-28T22:23:19.274Z,0.76
2023-10-28T22:25:47.197Z,0.75
2023-10-28T22:28:16.438Z,0.79
2023-10-28T22:30:48.716Z,0.70
2023-10-28T22:33:17.146Z,0.81
2023-10-28T22:35:46.955Z,0.71
2023-10-28T22:38:15.645Z,0.80
2023-10-28T22:40:44.723Z,0.84
2023-10-28T22:43:12.723Z,0.76
2023-10-28T22:45:40.370Z,0.70
2023-10-28T22:48:08.419Z,0.85
2023-10-28T22:50:38.268Z,0.88
2023-10-28T22:53:07.188Z,0.81
2023-10-28T22:55:34.986Z,0.85
2023-10-28T22:58:02.766Z,0.73
2023-10-28T23:00:32.329Z,0.90
2023-10-28T23:03:00.454Z,0.78
2023-10-28T23:05:28.735Z,0.93
2023-10-28T23:07:58.436Z,0.76
2023-10-28T23:10:26.277Z,1.01
2023-10-28T23:12:55.611Z,1.11
2023-10-28T23:15:25.400Z,1.01
2023-10-28T23:17:53.953Z,0.89
2023-10-28T23:20:22.114Z,0.82
2023-10-28T23:22:49.831Z,0.91
2023-10-28T23:25:17.790Z,1.03
2023-10-28T23:27:45.558Z,1.01
2023-10-28T23:30:13.706Z,1.09
2023-10-28T23:32:41.552Z,1.13
2023-10-28T23:35:09.610Z,1.04
2023-10-28T23:37:37.326Z,1.09
2023-10-28T23:40:07.302Z,0.99
2023-10-28T23:42:35.417Z,1.00
2023-10-28T23:45:04.121Z,1.06
2023-10-28T23:47:32.077Z,1.10
2023-10-28T23:49:59.943Z,1.32
2023-10-28T23:52:27.849Z,1.04
2023-10-28T23:54:55.785Z,1.38
2023-10-28T23:57:23.839Z,1.17
2023-10-28T23:59:51.660Z,1.19
